Time;durP1;ratioP1;P1;durP2;ratioP2;P2;SDS_P1;SDS_P2;PMS_P1;PMS_P2;Temp;Humidity;BMP_temperature;BMP_pressure;BME280_temperature;BME280_humidity;BME280_pressure;Samples;Min_cycle;Max_cycle;Signal;HPM_P1;HPM_P2
2022/05/20 00:01:45;;;;;;;2.97;2.65;;;;;;;;;;4164563;34;20443;-69
2022/05/20 00:34:13;;;;;;;4.60;2.25;;;;;;;;;;4224685;29;20488;-63
2022/05/20 00:36:39;;;;;;;4.40;2.58;;;;;;;;;;4177959;34;20439;-63
2022/05/20 00:39:05;;;;;;;8.25;2.97;;;;;;;;;;4177933;34;20126;-63
2022/05/20 00:41:31;;;;;;;4.90;2.30;;;;;;;;;;4178189;34;20136;-67
2022/05/20 00:43:58;;;;;;;4.97;2.42;;;;;;;;;;4177756;34;20118;-67
2022/05/20 00:46:26;;;;;;;3.15;2.42;;;;;;;;;;4178117;34;20118;-67
2022/05/20 00:49:02;;;;;;;3.42;2.40;;;;;;;;;;4164906;34;20110;-67
2022/05/20 00:51:33;;;;;;;6.70;2.47;;;;;;;;;;4177993;34;20130;-63
2022/05/20 00:54:17;;;;;;;4.07;2.37;;;;;;;;;;4165158;34;20113;-62
2022/05/20 00:57:06;;;;;;;3.58;2.33;;;;;;;;;;4178218;34;20173;-63
2022/05/20 00:59:34;;;;;;;3.53;2.20;;;;;;;;;;4178011;34;20122;-67
2022/05/20 01:02:07;;;;;;;6.45;2.20;;;;;;;;;;4165253;34;20216;-66
2022/05/20 01:04:34;;;;;;;4.55;2.20;;;;;;;;;;4165351;34;20193;-67
2022/05/20 01:07:00;;;;;;;4.78;2.00;;;;;;;;;;4164980;34;20119;-67
2022/05/20 01:09:26;;;;;;;4.78;2.08;;;;;;;;;;4177489;34;20102;-66
2022/05/20 01:11:52;;;;;;;8.18;2.95;;;;;;;;;;4177111;34;20115;-66
2022/05/20 01:14:23;;;;;;;4.62;2.30;;;;;;;;;;4177669;34;20126;-66
2022/05/20 01:16:50;;;;;;;2.30;2.10;;;;;;;;;;4177827;34;20178;-67
2022/05/20 01:19:29;;;;;;;5.85;2.42;;;;;;;;;;4177676;34;20102;-67
2022/05/20 01:21:55;;;;;;;3.28;2.12;;;;;;;;;;4165029;34;20178;-67
2022/05/20 01:24:21;;;;;;;2.80;2.20;;;;;;;;;;4177600;34;20226;-67
2022/05/20 01:26:47;;;;;;;3.53;2.20;;;;;;;;;;4177689;34;20209;-66
2022/05/20 01:29:13;;;;;;;2.22;2.00;;;;;;;;;;4164927;34;20282;-67
2022/05/20 01:31:39;;;;;;;3.80;2.20;;;;;;;;;;4177689;34;20125;-67
2022/05/20 01:34:05;;;;;;;6.18;2.20;;;;;;;;;;4177226;34;20137;-67
2022/05/20 01:36:31;;;;;;;5.82;2.20;;;;;;;;;;4177550;34;20213;-67
2022/05/20 01:38:59;;;;;;;5.65;2.30;;;;;;;;;;4177582;34;20182;-66
2022/05/20 01:41:55;;;;;;;5.03;2.25;;;;;;;;;;4164871;34;20090;-67
2022/05/20 01:44:26;;;;;;;;;;;;;;;;;;4177926;34;20155;-67
2022/05/20 01:46:59;;;;;;;4.30;2.08;;;;;;;;;;4164815;34;20801;-66
2022/05/20 01:49:40;;;;;;;6.43;2.50;;;;;;;;;;4177334;34;20105;-67
2022/05/20 01:52:17;;;;;;;5.12;2.22;;;;;;;;;;4177610;34;20167;-66
2022/05/20 01:54:54;;;;;;;3.62;2.10;;;;;;;;;;4164579;34;20126;-67
2022/05/20 01:57:20;;;;;;;6.75;3.55;;;;;;;;;;4164720;34;20102;-66
2022/05/20 01:59:51;;;;;;;3.45;2.20;;;;;;;;;;4177443;34;20129;-65
2022/05/20 02:02:25;;;;;;;5.90;2.00;;;;;;;;;;4177591;34;20146;-67
2022/05/20 02:04:59;;;;;;;2.90;2.03;;;;;;;;;;4177199;34;20091;-67
2022/05/20 02:07:27;;;;;;;4.18;2.25;;;;;;;;;;4164548;34;20529;-67
2022/05/20 02:10:12;;;;;;;2.45;2.17;;;;;;;;;;4164345;34;20496;-67
2022/05/20 02:12:42;;;;;;;3.47;1.90;;;;;;;;;;4164528;34;20229;-67
2022/05/20 02:15:32;;;;;;;4.82;2.10;;;;;;;;;;4164562;34;20126;-67
2022/05/20 02:18:00;;;;;;;7.50;2.15;;;;;;;;;;4153243;34;20118;-67
2022/05/20 02:20:31;;;;;;;2.87;1.98;;;;;;;;;;4164617;34;20645;-66
2022/05/20 02:23:02;;;;;;;5.90;2.00;;;;;;;;;;4163985;34;20495;-67
2022/05/20 02:25:31;;;;;;;6.70;2.30;;;;;;;;;;4164700;34;20101;-67
2022/05/20 02:28:20;;;;;;;6.53;2.47;;;;;;;;;;4164253;34;20506;-67
2022/05/20 02:30:46;;;;;;;2.53;2.20;;;;;;;;;;4164355;34;20125;-67
2022/05/20 02:33:21;;;;;;;7.07;2.90;;;;;;;;;;4164271;34;20119;-67
2022/05/20 02:35:48;;;;;;;4.00;2.08;;;;;;;;;;4177171;34;20113;-67
2022/05/20 02:38:19;;;;;;;4.32;2.28;;;;;;;;;;4164424;34;20141;-67
2022/05/20 02:40:49;;;;;;;5.75;2.92;;;;;;;;;;4176906;34;20114;-67
2022/05/20 02:43:15;;;;;;;3.58;1.92;;;;;;;;;;4164279;34;20134;-67
2022/05/20 02:45:42;;;;;;;3.95;2.00;;;;;;;;;;4164497;34;20137;-66
2022/05/20 02:48:08;;;;;;;6.78;2.42;;;;;;;;;;4153149;34;20537;-67
2022/05/20 02:50:34;;;;;;;4.18;2.30;;;;;;;;;;4152938;34;20114;-67
2022/05/20 02:53:00;;;;;;;6.82;2.65;;;;;;;;;;4164041;34;20129;-67
2022/05/20 02:55:27;;;;;;;3.10;2.55;;;;;;;;;;4176835;34;20107;-67
2022/05/20 02:57:53;;;;;;;7.00;2.67;;;;;;;;;;4177100;34;20130;-66
2022/05/20 03:05:49;;;;;;;4.68;2.58;;;;;;;;;;4176704;34;20219;-67
2022/05/20 03:08:15;;;;;;;8.98;2.92;;;;;;;;;;4176806;34;20130;-67
2022/05/20 03:10:41;;;;;;;5.82;2.90;;;;;;;;;;4176697;34;20150;-67
2022/05/20 03:13:07;;;;;;;4.87;2.70;;;;;;;;;;4176787;34;20574;-67
2022/05/20 03:15:33;;;;;;;7.72;3.00;;;;;;;;;;4176824;34;20185;-67
2022/05/20 03:17:59;;;;;;;12.45;2.95;;;;;;;;;;4176697;34;20134;-67
2022/05/20 03:20:26;;;;;;;3.70;2.40;;;;;;;;;;4176788;34;20111;-66
2022/05/20 03:22:52;;;;;;;8.50;2.30;;;;;;;;;;4176454;34;20125;-68
2022/05/20 03:25:20;;;;;;;4.85;3.12;;;;;;;;;;4176581;34;20091;-68
2022/05/20 03:27:47;;;;;;;4.72;2.80;;;;;;;;;;4176376;34;20098;-68
2022/05/20 03:30:13;;;;;;;4.32;2.40;;;;;;;;;;4164048;34;20134;-68
2022/05/20 03:32:40;;;;;;;10.15;2.08;;;;;;;;;;4176671;34;20129;-68
2022/05/20 03:35:06;;;;;;;5.37;2.50;;;;;;;;;;4164797;34;20631;-68
2022/05/20 03:37:33;;;;;;;13.93;2.50;;;;;;;;;;4154334;34;20133;-64
2022/05/20 03:39:59;;;;;;;5.78;2.10;;;;;;;;;;4165582;34;20581;-66
2022/05/20 03:42:25;;;;;;;4.25;2.53;;;;;;;;;;4178500;34;20511;-65
2022/05/20 03:44:51;;;;;;;4.95;2.30;;;;;;;;;;4178406;34;20114;-68
2022/05/20 03:47:18;;;;;;;6.25;2.60;;;;;;;;;;4178644;34;20119;-69
2022/05/20 03:49:44;;;;;;;4.05;2.05;;;;;;;;;;4165708;34;20236;-68
2022/05/20 03:52:10;;;;;;;8.57;2.70;;;;;;;;;;4165663;34;20114;-69
2022/05/20 03:54:36;;;;;;;10.07;2.47;;;;;;;;;;4178630;34;20231;-66
2022/05/20 03:57:03;;;;;;;6.47;2.78;;;;;;;;;;4178281;34;20194;-68
2022/05/20 03:59:33;;;;;;;9.82;3.37;;;;;;;;;;4176403;34;20451;-68
2022/05/20 04:02:00;;;;;;;6.50;3.15;;;;;;;;;;4177966;34;20133;-67
2022/05/20 04:04:53;;;;;;;6.43;3.33;;;;;;;;;;4156590;34;20111;-67
2022/05/20 04:07:24;;;;;;;7.15;2.55;;;;;;;;;;4149969;34;20134;-66
2022/05/20 04:09:50;;;;;;;5.93;2.67;;;;;;;;;;4151727;34;20099;-67
2022/05/20 04:12:35;;;;;;;19.48;3.58;;;;;;;;;;4151888;34;20165;-67
2022/05/20 04:15:03;;;;;;;6.10;2.93;;;;;;;;;;4151933;34;20103;-66
2022/05/20 04:17:29;;;;;;;3.60;2.58;;;;;;;;;;4140518;34;20328;-66
2022/05/20 04:19:55;;;;;;;6.82;3.20;;;;;;;;;;4164446;34;20511;-66
2022/05/20 04:22:26;;;;;;;7.30;2.67;;;;;;;;;;4163963;34;20115;-67
2022/05/20 04:24:52;;;;;;;5.55;2.87;;;;;;;;;;4151751;34;20130;-68
2022/05/20 04:27:18;;;;;;;4.80;2.55;;;;;;;;;;4164689;34;20296;-67
2022/05/20 04:29:44;;;;;;;8.40;2.70;;;;;;;;;;4164219;34;20198;-67
2022/05/20 04:32:10;;;;;;;7.70;2.67;;;;;;;;;;4164377;34;20107;-67
2022/05/20 04:34:36;;;;;;;5.90;3.08;;;;;;;;;;4151570;34;20198;-68
2022/05/20 04:37:02;;;;;;;3.00;1.87;;;;;;;;;;4164363;34;20104;-67
2022/05/20 04:39:28;;;;;;;4.82;2.08;;;;;;;;;;4151400;34;20207;-66
2022/05/20 04:47:25;;;;;;;;;;;;;;;;;;4164659;34;20123;-67
2022/05/20 04:49:51;;;;;;;5.32;2.20;;;;;;;;;;4163833;34;20363;-67
2022/05/20 04:52:17;;;;;;;4.93;2.25;;;;;;;;;;4164179;34;20110;-67
2022/05/20 04:54:49;;;;;;;4.70;2.03;;;;;;;;;;4164066;34;20095;-67
2022/05/20 04:57:20;;;;;;;2.10;1.87;;;;;;;;;;4151457;34;20131;-67
2022/05/20 04:59:47;;;;;;;4.70;2.12;;;;;;;;;;4164391;34;20201;-67
2022/05/20 05:02:13;;;;;;;6.15;2.50;;;;;;;;;;4151563;34;20111;-63
2022/05/20 05:04:39;;;;;;;7.07;2.40;;;;;;;;;;4164087;34;20119;-63
2022/05/20 05:07:09;;;;;;;3.33;1.85;;;;;;;;;;4151663;34;20121;-63
2022/05/20 05:09:39;;;;;;;5.03;2.37;;;;;;;;;;4164063;34;20480;-63
2022/05/20 05:12:07;;;;;;;3.62;2.22;;;;;;;;;;4151300;34;20165;-63
2022/05/20 05:14:42;;;;;;;3.35;2.00;;;;;;;;;;4164044;34;20183;-63
2022/05/20 05:17:09;;;;;;;3.22;2.10;;;;;;;;;;4164046;34;20162;-63
2022/05/20 05:19:36;;;;;;;2.85;1.73;;;;;;;;;;4164253;34;20223;-62
2022/05/20 05:22:04;;;;;;;1.65;1.55;;;;;;;;;;4163918;34;20122;-62
2022/05/20 05:24:30;;;;;;;4.90;1.87;;;;;;;;;;4163954;34;20547;-63
2022/05/20 05:26:56;;;;;;;4.28;2.00;;;;;;;;;;4164213;34;20515;-63
2022/05/20 05:29:22;;;;;;;2.50;2.10;;;;;;;;;;4164093;34;20194;-63
2022/05/20 05:31:48;;;;;;;3.85;1.80;;;;;;;;;;4164002;34;20091;-64
2022/05/20 05:34:15;;;;;;;8.93;2.17;;;;;;;;;;4163887;34;20543;-63
2022/05/20 05:36:41;;;;;;;2.22;1.90;;;;;;;;;;4151174;34;20799;-63
2022/05/20 05:39:07;;;;;;;2.65;2.10;;;;;;;;;;4163982;34;20134;-63
2022/05/20 05:41:33;;;;;;;2.92;1.60;;;;;;;;;;4128864;34;20175;-62
2022/05/20 05:44:03;;;;;;;3.60;1.52;;;;;;;;;;4163949;34;20131;-63
2022/05/20 05:46:30;;;;;;;2.10;1.65;;;;;;;;;;4163759;34;20218;-62
2022/05/20 05:48:57;;;;;;;3.08;1.75;;;;;;;;;;4151216;34;20554;-63
2022/05/20 05:51:24;;;;;;;1.95;1.52;;;;;;;;;;4163569;34;20123;-63
2022/05/20 05:53:50;;;;;;;3.53;2.00;;;;;;;;;;4150928;34;20459;-63
2022/05/20 05:56:17;;;;;;;1.75;1.65;;;;;;;;;;4163701;34;20111;-63
2022/05/20 05:58:42;;;;;;;3.97;1.60;;;;;;;;;;4163458;34;20210;-61
2022/05/20 06:01:09;;;;;;;1.80;1.65;;;;;;;;;;4163957;34;20535;-63
2022/05/20 06:03:35;;;;;;;4.68;1.90;;;;;;;;;;4163810;34;20123;-61
2022/05/20 06:06:01;;;;;;;1.83;1.60;;;;;;;;;;4163592;34;20215;-61
2022/05/20 06:08:27;;;;;;;3.70;1.73;;;;;;;;;;4163906;34;20110;-61
2022/05/20 06:10:53;;;;;;;3.87;1.70;;;;;;;;;;4163628;34;20638;-63
2022/05/20 06:13:24;;;;;;;2.67;1.67;;;;;;;;;;4163598;34;20130;-61
2022/05/20 06:15:50;;;;;;;3.33;1.73;;;;;;;;;;4163428;34;20111;-63
2022/05/20 06:18:16;;;;;;;4.53;1.85;;;;;;;;;;4163740;34;20141;-63
2022/05/20 06:20:42;;;;;;;1.55;1.45;;;;;;;;;;4163500;34;20126;-62
2022/05/20 06:23:08;;;;;;;5.60;1.60;;;;;;;;;;4163448;34;20123;-63
2022/05/20 06:25:34;;;;;;;2.35;1.60;;;;;;;;;;4163451;34;20110;-63
2022/05/20 06:28:11;;;;;;;3.05;1.73;;;;;;;;;;4163373;34;20179;-63
2022/05/20 06:30:38;;;;;;;3.65;1.60;;;;;;;;;;4139590;34;20250;-62
2022/05/20 06:33:05;;;;;;;2.53;1.40;;;;;;;;;;4163256;34;20103;-63
2022/05/20 06:41:00;;;;;;;5.15;1.50;;;;;;;;;;4163242;34;20177;-63
2022/05/20 06:43:27;;;;;;;3.37;1.62;;;;;;;;;;4163199;34;20140;-63
2022/05/20 06:45:57;;;;;;;1.65;1.40;;;;;;;;;;4163302;34;20541;-62
2022/05/20 06:48:25;;;;;;;5.87;1.50;;;;;;;;;;4163311;34;20199;-63
2022/05/20 06:50:51;;;;;;;1.45;1.35;;;;;;;;;;4163077;34;20137;-73
2022/05/20 06:53:17;;;;;;;2.75;1.50;;;;;;;;;;4150416;34;20138;-64
2022/05/20 06:55:43;;;;;;;4.25;1.73;;;;;;;;;;4150558;34;20117;-63
2022/05/20 06:58:09;;;;;;;4.72;1.70;;;;;;;;;;4163139;34;20133;-64
2022/05/20 07:00:35;;;;;;;4.55;1.70;;;;;;;;;;4163400;34;20132;-63
2022/05/20 07:03:01;;;;;;;2.10;1.60;;;;;;;;;;4163308;34;20131;-64
2022/05/20 07:05:30;;;;;;;8.48;1.87;;;;;;;;;;4163335;34;20229;-62
2022/05/20 07:07:56;;;;;;;5.12;1.80;;;;;;;;;;4163213;34;20183;-64
2022/05/20 07:10:22;;;;;;;3.22;1.60;;;;;;;;;;4163103;34;20094;-63
2022/05/20 07:12:48;;;;;;;2.25;1.48;;;;;;;;;;4163029;34;20134;-62
2022/05/20 07:15:14;;;;;;;4.90;1.80;;;;;;;;;;4163214;34;20495;-64
2022/05/20 07:17:41;;;;;;;2.00;1.60;;;;;;;;;;4150091;34;20118;-62
2022/05/20 07:20:07;;;;;;;2.85;1.73;;;;;;;;;;4162955;34;20094;-63
2022/05/20 07:22:34;;;;;;;3.53;1.70;;;;;;;;;;4162982;34;20523;-63
2022/05/20 07:25:00;;;;;;;3.35;1.35;;;;;;;;;;4163088;34;20094;-64
2022/05/20 07:27:25;;;;;;;3.03;1.65;;;;;;;;;;4163019;34;20238;-64
2022/05/20 07:29:51;;;;;;;3.35;1.73;;;;;;;;;;4162779;34;20182;-63
2022/05/20 07:32:17;;;;;;;4.60;1.90;;;;;;;;;;4162722;34;20190;-62
2022/05/20 07:34:43;;;;;;;4.45;2.03;;;;;;;;;;4162709;34;20183;-63
2022/05/20 07:37:09;;;;;;;1.75;1.65;;;;;;;;;;4171066;34;20091;-61
2022/05/20 07:39:35;;;;;;;1.85;1.73;;;;;;;;;;4176640;34;20213;-61
2022/05/20 07:42:01;;;;;;;9.73;2.90;;;;;;;;;;4176473;34;20229;-61
2022/05/20 07:44:28;;;;;;;3.55;2.05;;;;;;;;;;4176328;34;20137;-60
2022/05/20 07:46:53;;;;;;;3.90;1.83;;;;;;;;;;4176356;34;20129;-61
2022/05/20 07:49:19;;;;;;;4.18;1.95;;;;;;;;;;4176623;34;20144;-61
2022/05/20 07:51:49;;;;;;;2.45;1.95;;;;;;;;;;4176282;34;20218;-60
2022/05/20 07:54:23;;;;;;;2.45;2.10;;;;;;;;;;4176204;34;20130;-61
2022/05/20 07:56:55;;;;;;;2.33;2.12;;;;;;;;;;4176337;34;20467;-60
2022/05/20 07:59:25;;;;;;;6.82;2.78;;;;;;;;;;4176159;34;20123;-60
2022/05/20 08:01:52;;;;;;;3.90;2.50;;;;;;;;;;4176334;34;20129;-61
2022/05/20 08:07:10;;;;;;;3.47;2.00;;;;;;;;;;4176108;34;20219;-62
2022/05/20 08:09:36;;;;;;;1.60;1.50;;;;;;;;;;4163276;34;20119;-60
2022/05/20 08:12:02;;;;;;;2.58;2.37;;;;;;;;;;4163172;34;20119;-60
2022/05/20 08:14:28;;;;;;;5.22;2.50;;;;;;;;;;4172775;34;20114;-59
2022/05/20 08:16:58;;;;;;;4.12;2.00;;;;;;;;;;4172255;34;20162;-60
2022/05/20 08:19:25;;;;;;;3.50;1.90;;;;;;;;;;4171927;34;20126;-59
2022/05/20 08:21:51;;;;;;;4.00;1.67;;;;;;;;;;4161063;34;20218;-59
2022/05/20 08:24:17;;;;;;;3.53;1.70;;;;;;;;;;4175320;34;20521;-60
2022/05/20 08:26:43;;;;;;;3.05;1.70;;;;;;;;;;4177951;34;20103;-64
2022/05/20 08:29:12;;;;;;;3.85;1.70;;;;;;;;;;4178095;34;20451;-62
2022/05/20 08:31:39;;;;;;;2.53;1.80;;;;;;;;;;4178285;34;20106;-62
2022/05/20 08:34:06;;;;;;;3.58;1.85;;;;;;;;;;4165533;34;20103;-63
2022/05/20 08:36:32;;;;;;;2.40;1.70;;;;;;;;;;4165331;34;20158;-61
2022/05/20 08:38:58;;;;;;;2.85;2.00;;;;;;;;;;4178073;34;20141;-61
2022/05/20 08:41:30;;;;;;;3.08;2.08;;;;;;;;;;4165433;34;20107;-63
2022/05/20 08:43:56;;;;;;;7.00;1.83;;;;;;;;;;4165428;34;20114;-62
2022/05/20 08:46:24;;;;;;;3.45;1.58;;;;;;;;;;4165200;34;20121;-60
2022/05/20 08:48:55;;;;;;;3.28;1.90;;;;;;;;;;4165336;34;20127;-59
2022/05/20 08:51:22;;;;;;;1.95;1.70;;;;;;;;;;4142688;34;20496;-62
2022/05/20 08:53:49;;;;;;;6.03;2.37;;;;;;;;;;4165081;34;20194;-60
2022/05/20 08:56:19;;;;;;;3.67;1.90;;;;;;;;;;4165003;34;20452;-60
2022/05/20 08:59:00;;;;;;;2.90;2.05;;;;;;;;;;4177721;34;20110;-60
2022/05/20 09:01:33;;;;;;;2.78;1.87;;;;;;;;;;4177866;34;20110;-61
2022/05/20 09:03:59;;;;;;;3.72;1.98;;;;;;;;;;4177766;34;20203;-60
2022/05/20 09:06:25;;;;;;;2.90;1.80;;;;;;;;;;4165327;34;20198;-62
2022/05/20 09:09:03;;;;;;;4.37;1.60;;;;;;;;;;4177563;34;20114;-62
2022/05/20 09:11:29;;;;;;;2.95;1.67;;;;;;;;;;4177757;34;20227;-62
2022/05/20 09:17:22;;;;;;;2.25;1.70;;;;;;;;;;4177573;34;20126;-61
2022/05/20 09:20:04;;;;;;;4.28;2.37;;;;;;;;;;4164764;34;20125;-61
2022/05/20 09:22:38;;;;;;;1.95;1.50;;;;;;;;;;4177611;34;20152;-61
2022/05/20 09:25:33;;;;;;;2.10;1.70;;;;;;;;;;4177629;34;20130;-62
2022/05/20 09:28:14;;;;;;;3.10;2.05;;;;;;;;;;4177480;34;20118;-60
2022/05/20 09:30:49;;;;;;;3.30;1.80;;;;;;;;;;4177568;34;20515;-61
2022/05/20 09:33:22;;;;;;;2.40;1.50;;;;;;;;;;4164144;34;20099;-61
2022/05/20 09:36:00;;;;;;;2.35;1.58;;;;;;;;;;4177490;34;20533;-61
2022/05/20 09:38:47;;;;;;;6.28;1.87;;;;;;;;;;4177585;34;20194;-61
2022/05/20 09:41:16;;;;;;;2.28;1.90;;;;;;;;;;4177752;34;20095;-63
2022/05/20 09:43:45;;;;;;;3.95;1.40;;;;;;;;;;4177525;34;20117;-62
2022/05/20 09:46:29;;;;;;;3.10;1.48;;;;;;;;;;4177367;34;20150;-61
2022/05/20 09:49:10;;;;;;;3.12;1.77;;;;;;;;;;4177176;34;20483;-61
2022/05/20 09:51:40;;;;;;;9.50;2.35;;;;;;;;;;4164919;34;20128;-62
2022/05/20 09:54:13;;;;;;;3.78;1.80;;;;;;;;;;4177433;34;20538;-63
2022/05/20 09:56:43;;;;;;;6.75;1.95;;;;;;;;;;4164774;34;20191;-61
2022/05/20 09:59:15;;;;;;;5.82;1.90;;;;;;;;;;4164508;34;20094;-63
2022/05/20 10:01:51;;;;;;;5.20;1.77;;;;;;;;;;4177539;34;20542;-62
2022/05/20 10:04:32;;;;;;;2.85;1.90;;;;;;;;;;4164626;34;20662;-62
2022/05/20 10:06:59;;;;;;;2.50;1.73;;;;;;;;;;4153433;34;20094;-62
2022/05/20 10:09:32;;;;;;;1.75;1.60;;;;;;;;;;4177116;34;20113;-64
2022/05/20 10:12:06;;;;;;;2.35;1.90;;;;;;;;;;4177123;34;20113;-63
2022/05/20 10:14:35;;;;;;;4.78;1.75;;;;;;;;;;4153211;34;20111;-61
2022/05/20 10:17:15;;;;;;;6.57;2.00;;;;;;;;;;4177343;34;20109;-62
2022/05/20 10:19:45;;;;;;;4.60;1.77;;;;;;;;;;4164460;34;20462;-63
2022/05/20 10:22:33;;;;;;;2.37;1.90;;;;;;;;;;4177364;34;20496;-61
2022/05/20 10:25:10;;;;;;;2.47;1.60;;;;;;;;;;4177121;34;20136;-62
2022/05/20 10:27:51;;;;;;;3.12;1.90;;;;;;;;;;4177046;34;20496;-63
2022/05/20 10:33:15;;;;;;;;;;;;;;;;;;4166448;34;20206;-64
2022/05/20 10:35:59;;;;;;;3.55;1.90;;;;;;;;;;4164551;34;20021;-62
2022/05/20 10:38:40;;;;;;;2.53;1.70;;;;;;;;;;4177249;34;20119;-63
2022/05/20 10:41:26;;;;;;;2.03;1.80;;;;;;;;;;4176968;34;20126;-63
2022/05/20 10:50:04;;;;;;;2.28;1.65;;;;;;;;;;4176717;34;19990;-63
2022/05/20 10:52:47;;;;;;;3.97;2.00;;;;;;;;;;4176962;34;20193;-62
2022/05/20 10:55:19;;;;;;;1.80;1.40;;;;;;;;;;4176952;34;20098;-60
2022/05/20 10:58:04;;;;;;;2.83;1.70;;;;;;;;;;4164079;34;20515;-62
2022/05/20 11:00:44;;;;;;;5.93;2.00;;;;;;;;;;4176938;34;20120;-61
2022/05/20 11:03:44;;;;;;;2.58;2.37;;;;;;;;;;4176898;34;20142;-62
2022/05/20 11:06:28;;;;;;;2.58;1.77;;;;;;;;;;4176781;34;20534;-62
2022/05/20 11:08:57;;;;;;;2.35;1.75;;;;;;;;;;4176988;34;20504;-62
2022/05/20 11:11:54;;;;;;;1.73;1.62;;;;;;;;;;4176620;34;20117;-61
2022/05/20 11:14:35;;;;;;;1.90;1.65;;;;;;;;;;4164175;34;20122;-60
2022/05/20 11:17:08;;;;;;;4.40;2.15;;;;;;;;;;4176857;34;20148;-61
2022/05/20 11:19:56;;;;;;;2.35;1.70;;;;;;;;;;4164212;34;20118;-61
2022/05/20 11:22:30;;;;;;;4.00;1.80;;;;;;;;;;4152766;34;20122;-61
2022/05/20 11:24:56;;;;;;;2.83;2.05;;;;;;;;;;4176446;34;20114;-61
2022/05/20 11:27:49;;;;;;;2.25;1.70;;;;;;;;;;4176445;34;20144;-64
2022/05/20 11:30:43;;;;;;;2.20;1.83;;;;;;;;;;4176433;34;20102;-63
2022/05/20 11:33:47;;;;;;;4.05;2.00;;;;;;;;;;4163928;34;20161;-64
2022/05/20 11:36:25;;;;;;;3.67;2.03;;;;;;;;;;4176630;34;20476;-62
2022/05/20 11:39:30;;;;;;;6.93;2.22;;;;;;;;;;4176464;34;20140;-62
2022/05/20 11:42:12;;;;;;;5.05;2.12;;;;;;;;;;4176413;34;20110;-62
2022/05/20 11:44:54;;;;;;;2.62;2.00;;;;;;;;;;4176336;34;20130;-60
2022/05/20 11:47:58;;;;;;;6.07;2.45;;;;;;;;;;4163630;34;20599;-62
2022/05/20 11:50:33;;;;;;;5.82;2.00;;;;;;;;;;4176162;34;20133;-61
2022/05/20 11:53:23;;;;;;;2.63;1.80;;;;;;;;;;4163632;34;20118;-60
2022/05/20 11:55:52;;;;;;;4.40;2.10;;;;;;;;;;4164543;34;20575;-58
2022/05/20 11:58:39;;;;;;;4.72;2.17;;;;;;;;;;4166012;34;20118;-61
2022/05/20 12:01:06;;;;;;;2.70;2.08;;;;;;;;;;4165599;34;20129;-60
2022/05/20 12:04:06;;;;;;;4.43;2.12;;;;;;;;;;4178370;34;20125;-63
2022/05/20 12:06:24;;;;;;;1.98;1.87;;;;;;;;;;4168001;34;20231;-60
2022/05/20 12:08:56;;;;;;;7.15;2.17;;;;;;;;;;4154219;34;20106;-59
2022/05/20 12:11:35;;;;;;;1.90;1.70;;;;;;;;;;4178287;34;20106;-61
2022/05/20 12:14:07;;;;;;;3.33;2.00;;;;;;;;;;4165482;34;20149;-61
2022/05/20 12:16:52;;;;;;;5.15;2.20;;;;;;;;;;4178359;34;20134;-62
2022/05/20 12:25:34;;;;;;;3.20;1.80;;;;;;;;;;4178086;34;20109;-60
2022/05/20 12:28:09;;;;;;;3.97;1.98;;;;;;;;;;4178149;34;20152;-60
2022/05/20 12:30:37;;;;;;;;;;;;;;;;;;4165993;34;20173;-60
2022/05/20 12:33:23;;;;;;;2.30;1.92;;;;;;;;;;4177926;34;19996;-60
2022/05/20 12:36:07;;;;;;;;;;;;;;;;;;4178235;34;20537;-62
2022/05/20 12:38:33;;;;;;;1.77;1.67;;;;;;;;;;4177913;34;19988;-63
2022/05/20 12:41:00;;;;;;;5.25;1.77;;;;;;;;;;4165099;34;20126;-62
2022/05/20 12:43:46;;;;;;;4.78;1.67;;;;;;;;;;4154060;34;20271;-62
2022/05/20 12:46:19;;;;;;;5.45;2.03;;;;;;;;;;4178016;34;20098;-64
2022/05/20 12:48:45;;;;;;;4.68;1.70;;;;;;;;;;4165384;34;20118;-63
2022/05/20 12:51:10;;;;;;;1.62;1.52;;;;;;;;;;4165167;34;20455;-61
2022/05/20 12:53:41;;;;;;;2.78;1.80;;;;;;;;;;4177995;34;20122;-62
2022/05/20 12:56:24;;;;;;;3.78;1.67;;;;;;;;;;4177791;34;20459;-63
2022/05/20 12:58:50;;;;;;;2.45;1.67;;;;;;;;;;4177855;34;20123;-63
2022/05/20 13:01:17;;;;;;;2.20;2.00;;;;;;;;;;4177777;34;20209;-62
2022/05/20 13:03:45;;;;;;;2.15;1.83;;;;;;;;;;4165302;34;20128;-61
2022/05/20 13:06:15;;;;;;;5.87;2.17;;;;;;;;;;4177611;34;20103;-63
2022/05/20 13:08:52;;;;;;;2.40;1.92;;;;;;;;;;4177981;34;20133;-62
2022/05/20 13:11:20;;;;;;;4.07;1.83;;;;;;;;;;4178004;34;20198;-62
2022/05/20 13:13:50;;;;;;;1.87;1.67;;;;;;;;;;4177796;34;20511;-63
2022/05/20 13:16:16;;;;;;;2.97;1.83;;;;;;;;;;4177670;34;20098;-63
2022/05/20 13:18:44;;;;;;;5.72;2.22;;;;;;;;;;4177732;34;20145;-62
2022/05/20 13:21:21;;;;;;;1.83;1.48;;;;;;;;;;4164901;34;20118;-64
2022/05/20 13:23:50;;;;;;;2.30;1.87;;;;;;;;;;4162601;34;20148;-62
2022/05/20 13:26:19;;;;;;;3.45;1.90;;;;;;;;;;4151262;34;20107;-63
2022/05/20 13:28:45;;;;;;;1.92;1.48;;;;;;;;;;4163725;34;20135;-62
2022/05/20 13:31:13;;;;;;;4.72;1.70;;;;;;;;;;4164161;34;20102;-62
2022/05/20 13:33:41;;;;;;;2.90;2.00;;;;;;;;;;4151274;34;20114;-62
2022/05/20 13:36:12;;;;;;;3.00;2.10;;;;;;;;;;4153228;34;20467;-61
2022/05/20 13:38:44;;;;;;;3.12;2.35;;;;;;;;;;4177880;34;20095;-61
2022/05/20 13:41:11;;;;;;;4.10;2.40;;;;;;;;;;4164749;34;20106;-64
2022/05/20 13:43:40;;;;;;;5.82;2.47;;;;;;;;;;4177546;34;20137;-63
2022/05/20 13:51:47;;;;;;;3.45;1.70;;;;;;;;;;4177438;34;20106;-62
2022/05/20 13:54:17;;;;;;;4.22;2.00;;;;;;;;;;4177694;34;20142;-62
2022/05/20 13:56:46;;;;;;;4.03;2.53;;;;;;;;;;4164951;34;20551;-61
2022/05/20 13:59:27;;;;;;;5.10;2.40;;;;;;;;;;4175471;34;20153;-63
2022/05/20 14:02:08;;;;;;;5.25;2.40;;;;;;;;;;4175564;34;20126;-62
2022/05/20 14:04:42;;;;;;;3.00;2.17;;;;;;;;;;4172921;34;20114;-63
2022/05/20 14:07:12;;;;;;;4.30;2.10;;;;;;;;;;4174345;34;20118;-63
2022/05/20 14:09:49;;;;;;;3.42;2.20;;;;;;;;;;4163715;34;20102;-63
2022/05/20 14:12:19;;;;;;;2.97;1.67;;;;;;;;;;4163423;34;20154;-63
2022/05/20 14:14:57;;;;;;;2.67;1.85;;;;;;;;;;4164274;34;20553;-60
2022/05/20 14:17:23;;;;;;;2.35;1.52;;;;;;;;;;4164703;34;20114;-62
2022/05/20 14:19:50;;;;;;;2.35;1.50;;;;;;;;;;4176510;34;20214;-62
2022/05/20 14:22:18;;;;;;;2.92;1.52;;;;;;;;;;4164460;34;20169;-61
2022/05/20 14:24:59;;;;;;;2.12;1.90;;;;;;;;;;4164217;34;20551;-60
2022/05/20 14:27:40;;;;;;;2.33;1.70;;;;;;;;;;4164613;34;20115;-61
2022/05/20 14:30:23;;;;;;;1.60;1.50;;;;;;;;;;4176984;34;20098;-60
2022/05/20 14:32:50;;;;;;;3.85;1.58;;;;;;;;;;4176951;34;20126;-62
2022/05/20 14:35:19;;;;;;;2.65;1.80;;;;;;;;;;4163626;34;20294;-62
2022/05/20 14:37:45;;;;;;;2.55;1.40;;;;;;;;;;4164160;34;20186;-64
2022/05/20 14:40:15;;;;;;;2.50;2.00;;;;;;;;;;4164101;34;20542;-64
2022/05/20 14:42:46;;;;;;;1.62;1.52;;;;;;;;;;4176894;34;20655;-63
2022/05/20 14:45:16;;;;;;;2.28;1.58;;;;;;;;;;4164124;34;20196;-63
2022/05/20 14:47:50;;;;;;;1.60;1.50;;;;;;;;;;4164480;34;20127;-63
2022/05/20 14:50:24;;;;;;;5.57;1.60;;;;;;;;;;4153169;34;20126;-67
2022/05/20 14:52:50;;;;;;;3.83;1.55;;;;;;;;;;4163951;34;20226;-62
2022/05/20 14:55:28;;;;;;;1.55;1.40;;;;;;;;;;4176868;34;20530;-61
2022/05/20 14:58:13;;;;;;;2.58;1.70;;;;;;;;;;4164223;34;20201;-66
2022/05/20 15:01:05;;;;;;;1.60;1.50;;;;;;;;;;4176849;34;20199;-62
2022/05/20 15:03:36;;;;;;;2.30;1.70;;;;;;;;;;4176855;34;20578;-62
2022/05/20 15:06:03;;;;;;;2.83;1.40;;;;;;;;;;4164106;34;21127;-62
2022/05/20 15:08:32;;;;;;;3.95;1.60;;;;;;;;;;4164212;34;20138;-62
2022/05/20 15:11:09;;;;;;;1.98;1.60;;;;;;;;;;4176846;34;20786;-62
2022/05/20 15:13:35;;;;;;;5.50;1.60;;;;;;;;;;4176755;34;20215;-62
2022/05/20 15:16:03;;;;;;;1.70;1.60;;;;;;;;;;4176905;34;20193;-65
2022/05/20 15:18:29;;;;;;;2.03;1.75;;;;;;;;;;4176902;34;20122;-61
2022/05/20 15:21:00;;;;;;;3.80;1.70;;;;;;;;;;4163819;34;20111;-64
2022/05/20 15:23:36;;;;;;;3.45;1.75;;;;;;;;;;4176596;34;20226;-62
2022/05/20 15:26:05;;;;;;;1.48;1.37;;;;;;;;;;4176500;34;20102;-64
2022/05/20 15:37:12;;;;;;;1.90;1.48;;;;;;;;;;4159255;34;20447;-61
2022/05/20 15:39:41;;;;;;;6.72;2.15;;;;;;;;;;4152210;34;20103;-58
2022/05/20 15:42:08;;;;;;;1.87;1.62;;;;;;;;;;4168186;34;20193;-59
2022/05/20 15:44:34;;;;;;;2.37;1.52;;;;;;;;;;4164850;34;20126;-61
2022/05/20 15:47:01;;;;;;;1.40;1.30;;;;;;;;;;4163897;34;20471;-60
2022/05/20 15:49:27;;;;;;;2.28;1.50;;;;;;;;;;4164810;34;20476;-62
2022/05/20 15:51:54;;;;;;;1.70;1.60;;;;;;;;;;4164817;34;20499;-61
2022/05/20 15:54:20;;;;;;;2.30;1.60;;;;;;;;;;4152373;34;20218;-62
2022/05/20 15:56:47;;;;;;;4.55;1.50;;;;;;;;;;4164741;34;20475;-61
2022/05/20 15:59:15;;;;;;;1.52;1.42;;;;;;;;;;4152248;34;20107;-61
2022/05/20 16:01:41;;;;;;;1.83;1.65;;;;;;;;;;4164740;34;20200;-61
2022/05/20 16:04:07;;;;;;;1.50;1.40;;;;;;;;;;4152506;34;20455;-61
2022/05/20 16:06:38;;;;;;;3.78;1.67;;;;;;;;;;4164740;34;20204;-63
2022/05/20 16:09:07;;;;;;;1.77;1.50;;;;;;;;;;4152349;34;20302;-61
2022/05/20 16:11:33;;;;;;;3.35;2.12;;;;;;;;;;4164696;34;20126;-60
2022/05/20 16:14:00;;;;;;;2.35;1.60;;;;;;;;;;4164771;34;20534;-62
2022/05/20 16:16:26;;;;;;;2.85;1.50;;;;;;;;;;4151998;34;20103;-60
2022/05/20 16:18:52;;;;;;;3.70;1.40;;;;;;;;;;4164452;34;20130;-62
2022/05/20 16:21:18;;;;;;;2.45;1.40;;;;;;;;;;4164434;34;20121;-61
2022/05/20 16:23:50;;;;;;;4.22;1.60;;;;;;;;;;4164546;34;20103;-62
2022/05/20 16:26:20;;;;;;;1.77;1.35;;;;;;;;;;4151859;34;20485;-61
2022/05/20 16:28:47;;;;;;;2.97;1.45;;;;;;;;;;4152157;34;20130;-61